Decoded Metar for PAVC (KING COVE in AK, USA) (IATA:N/A) | Meteo·Mobile Aviation Weather
aviador You're here:

PAVC Decoded Metar

KING COVE in AK, USA
Report Time2018-08-21 05:17:00
UTC Time2018-08-21 05:38:45
Flight Rules mvfr MVFR
Wind050° at 05 kt
W.Decomp.*RWY 07: 4.1 kt HW 2.8 kt LCW
W.Rank050° ranks 17
Current wind is below 050° avg. (10.7)
Visibility4828 m
Phenomena:Mist
Clouds:Scattered 002 Hf
Scattered 007 Hf
Overcast 012 Hf
Ceiling1,200 ft
Temp11°C (ISA -4)
Dew Point11°C (100% RH)
AAT9.5°C
QNH1010 hPa
Density Alt-10 ft
Elevation154 ft
Report Wrong Elevation
Raw Report
PAVC 210517Z AUTO 05005KT 3SM BR SCT002 SCT007 OVC012 11/11 A2982
RMK AO2 RAE12 P0000=

Extra information for PAVC:More info

Metar Taf Metar & Taf Last 4 Metars F.Rules Stats Wind Profile Meteogram Temp Stats Airport Information Weather charts Add Link Nearby VenuesMetar ALERT Operation Metar Decoded Social comments

AIRNAV info for PAVC